Time;durP1;ratioP1;P1;durP2;ratioP2;P2;SDS_P1;SDS_P2;PMS_P1;PMS_P2;Temp;Humidity;BMP_temperature;BMP_pressure;BME280_temperature;BME280_humidity;BME280_pressure;Samples;Min_cycle;Max_cycle;Signal;HPM_P1;HPM_P2
2021/05/10 00:02:10;;;;;;;5.33;2.10;;;20.40;63.40;;;;;;5010812;28;20499;-80
2021/05/10 00:04:36;;;;;;;2.93;1.70;;;20.30;63.60;;;;;;5026280;28;20546;-80
2021/05/10 00:07:03;;;;;;;2.97;2.20;;;20.30;63.70;;;;;;5000458;28;20466;-81
2021/05/10 00:09:29;;;;;;;4.73;2.20;;;20.20;64.00;;;;;;5001806;28;20434;-83
2021/05/10 00:11:55;;;;;;;3.03;1.80;;;20.20;64.00;;;;;;5018344;28;20745;-81
2021/05/10 00:14:38;;;;;;;3.63;1.90;;;20.10;64.10;;;;;;4993733;28;20904;-81
2021/05/10 00:17:05;;;;;;;4.00;2.17;;;20.00;65.60;;;;;;4997652;28;20993;-80
2021/05/10 00:19:31;;;;;;;2.77;2.30;;;20.00;65.60;;;;;;5010563;28;20436;-83
2021/05/10 00:21:58;;;;;;;4.60;2.50;;;;;;;;;;5001563;28;20449;-80
2021/05/10 00:24:24;;;;;;;2.93;1.90;;;19.80;65.60;;;;;;5026206;28;20958;-81
2021/05/10 00:26:51;;;;;;;4.23;2.00;;;19.70;66.20;;;;;;4993381;28;20987;-82
2021/05/10 00:29:18;;;;;;;4.17;1.90;;;19.70;67.10;;;;;;4994895;28;20470;-81
2021/05/10 00:31:46;;;;;;;2.70;1.87;;;19.70;66.90;;;;;;5009464;28;20437;-80
2021/05/10 00:34:13;;;;;;;4.33;1.83;;;19.70;67.70;;;;;;5010632;28;21114;-83
2021/05/10 00:36:40;;;;;;;2.20;1.97;;;19.70;65.60;;;;;;5025014;28;20572;-82
2021/05/10 00:39:08;;;;;;;4.27;2.00;;;19.80;64.70;;;;;;5002267;28;21035;-80
2021/05/10 00:41:35;;;;;;;6.00;2.23;;;20.00;62.80;;;;;;5004047;28;20548;-80
2021/05/10 00:44:03;;;;;;;3.90;2.10;;;20.10;61.70;;;;;;4994464;28;20512;-82
2021/05/10 00:46:30;;;;;;;4.77;1.67;;;20.30;60.70;;;;;;5003965;28;20463;-82
2021/05/10 00:48:57;;;;;;;1.40;1.30;;;20.40;60.40;;;;;;5012036;28;20477;-82
2021/05/10 00:51:24;;;;;;;12.70;1.90;;;20.40;59.60;;;;;;5003322;28;20507;-82
2021/05/10 00:53:50;;;;;;;1.80;1.70;;;20.50;59.00;;;;;;5011433;28;20552;-81
2021/05/10 00:56:17;;;;;;;2.10;1.60;;;20.50;59.20;;;;;;5008124;28;20551;-78
2021/05/10 00:58:46;;;;;;;2.40;1.93;;;20.60;58.50;;;;;;5008418;28;21010;-81
2021/05/10 01:01:13;;;;;;;1.57;1.47;;;20.70;58.10;;;;;;5023036;28;20439;-80
2021/05/10 01:03:40;;;;;;;2.90;1.43;;;20.70;58.60;;;;;;5011151;28;20522;-82
2021/05/10 01:06:07;;;;;;;2.20;1.53;;;20.70;59.30;;;;;;5014887;28;20537;-81
2021/05/10 01:08:33;;;;;;;1.50;1.30;;;20.60;58.40;;;;;;5011708;28;20466;-83
2021/05/10 01:11:00;;;;;;;2.20;2.00;;;20.60;58.90;;;;;;5024092;28;20867;-80
2021/05/10 01:13:26;;;;;;;4.10;2.00;;;20.60;58.20;;;;;;4996936;28;20821;-78
2021/05/10 01:15:53;;;;;;;3.03;2.10;;;20.60;58.90;;;;;;4992419;28;20612;-80
2021/05/10 01:18:21;;;;;;;2.83;1.47;;;20.70;57.80;;;;;;5015073;28;20846;-81
2021/05/10 01:20:49;;;;;;;3.97;2.10;;;20.80;56.90;;;;;;4992473;28;20435;-82
2021/05/10 01:23:17;;;;;;;2.57;1.60;;;20.90;56.70;;;;;;5010170;28;20477;-80
2021/05/10 01:25:44;;;;;;;2.23;1.80;;;20.90;56.60;;;;;;5024911;28;20521;-82
2021/05/10 01:28:10;;;;;;;2.00;1.70;;;20.90;58.10;;;;;;5009164;28;20467;-81
2021/05/10 01:30:39;;;;;;;2.97;1.60;;;20.90;59.00;;;;;;4976061;28;20510;-81
2021/05/10 01:33:08;;;;;;;6.53;1.83;;;20.80;60.00;;;;;;4992736;28;20995;-81
2021/05/10 01:35:40;;;;;;;1.60;1.50;;;20.70;60.40;;;;;;5011947;28;20470;-80
2021/05/10 01:38:07;;;;;;;2.87;1.73;;;20.70;60.00;;;;;;4994396;28;20461;-80
2021/05/10 01:40:34;;;;;;;2.10;1.87;;;20.70;59.90;;;;;;5010767;28;20484;-80
2021/05/10 01:43:04;;;;;;;3.03;1.63;;;20.60;61.80;;;;;;5001345;28;20906;-81
2021/05/10 01:45:30;;;;;;;1.93;1.80;;;20.60;60.60;;;;;;5011089;28;20848;-81
2021/05/10 01:48:00;;;;;;;4.60;1.87;;;20.60;60.90;;;;;;4991636;28;20512;-80
2021/05/10 01:50:27;;;;;;;3.13;1.63;;;20.50;61.20;;;;;;5008201;28;20450;-83
2021/05/10 01:52:53;;;;;;;2.10;1.80;;;20.50;61.10;;;;;;5026400;28;20974;-82
2021/05/10 01:55:22;;;;;;;2.70;1.73;;;20.50;60.90;;;;;;5011172;28;21029;-80
2021/05/10 01:57:54;;;;;;;2.30;1.70;;;20.60;60.60;;;;;;5005805;28;20986;-81
2021/05/10 02:00:31;;;;;;;1.80;1.50;;;20.50;61.00;;;;;;5027070;28;20536;-79
2021/05/10 02:03:02;;;;;;;3.13;1.70;;;20.50;60.20;;;;;;5012112;28;20469;-81
2021/05/10 02:05:29;;;;;;;3.63;1.90;;;20.50;59.40;;;;;;5011658;28;20966;-80
2021/05/10 02:07:58;;;;;;;2.00;1.60;;;20.60;58.60;;;;;;4991094;28;20544;-82
2021/05/10 02:10:32;;;;;;;23.70;2.63;;;20.70;58.80;;;;;;5003075;28;20443;-81
2021/05/10 02:13:01;;;;;;;2.40;1.97;;;20.70;58.70;;;;;;4992542;28;20496;-79
2021/05/10 02:15:36;;;;;;;3.90;1.70;;;20.60;59.20;;;;;;5019940;28;20560;-82
2021/05/10 02:18:03;;;;;;;4.70;2.20;;;20.70;58.70;;;;;;5010046;28;20523;-80
2021/05/10 02:20:31;;;;;;;3.67;1.80;;;20.60;59.10;;;;;;5010585;28;20545;-80
2021/05/10 02:23:06;;;;;;;6.00;2.30;;;20.70;58.70;;;;;;4992203;28;20458;-81
2021/05/10 02:25:38;;;;;;;2.20;1.47;;;20.60;58.70;;;;;;4999567;28;20449;-82
2021/05/10 02:28:06;;;;;;;2.60;1.57;;;20.60;59.20;;;;;;4993091;28;21123;-82
2021/05/10 02:30:34;;;;;;;3.27;1.80;;;20.60;58.40;;;;;;5009056;28;20435;-80
2021/05/10 02:33:04;;;;;;;2.37;2.17;;;20.70;58.80;;;;;;4990747;28;20517;-79
2021/05/10 02:35:30;;;;;;;4.70;1.90;;;20.60;58.60;;;;;;5013330;28;20470;-81
2021/05/10 02:37:57;;;;;;;5.00;2.20;;;20.60;59.10;;;;;;5005947;28;20925;-80
2021/05/10 02:40:24;;;;;;;2.50;2.27;;;20.60;59.30;;;;;;5009580;28;20491;-78
2021/05/10 02:42:50;;;;;;;3.33;2.27;;;20.50;59.50;;;;;;4994303;28;20501;-80
2021/05/10 02:45:18;;;;;;;1.90;1.37;;;20.50;59.80;;;;;;5016263;28;20529;-80
2021/05/10 02:47:45;;;;;;;2.57;1.70;;;20.50;60.10;;;;;;4991960;28;20908;-80
2021/05/10 02:50:15;;;;;;;3.17;1.57;;;20.50;60.00;;;;;;5014264;28;20490;-79
2021/05/10 02:52:42;;;;;;;2.20;1.47;;;20.40;61.90;;;;;;5023623;28;20530;-81
2021/05/10 02:55:09;;;;;;;3.30;1.70;;;20.40;61.80;;;;;;4974991;28;20474;-81
2021/05/10 02:57:36;;;;;;;3.30;1.90;;;20.30;62.00;;;;;;5007780;28;20560;-82
2021/05/10 03:00:08;;;;;;;1.87;1.60;;;20.20;62.50;;;;;;4992546;28;20898;-83
2021/05/10 03:02:34;;;;;;;2.10;1.70;;;20.10;63.40;;;;;;4996206;28;20536;-82
2021/05/10 03:05:04;;;;;;;1.87;1.53;;;20.00;63.80;;;;;;5025167;28;20484;-81
2021/05/10 03:07:32;;;;;;;4.90;1.70;;;20.00;63.80;;;;;;5014386;28;20505;-78
2021/05/10 03:09:58;;;;;;;2.20;1.73;;;19.90;64.60;;;;;;5030758;28;20747;-82
2021/05/10 03:12:25;;;;;;;4.53;1.77;;;19.80;64.70;;;;;;5009621;28;20484;-80
2021/05/10 03:14:52;;;;;;;2.00;1.80;;;19.80;64.80;;;;;;5011666;28;20464;-79
2021/05/10 03:17:19;;;;;;;2.90;2.20;;;19.80;64.60;;;;;;4995375;28;20505;-81
2021/05/10 03:19:46;;;;;;;3.10;1.87;;;19.80;64.70;;;;;;5014697;28;20527;-80
2021/05/10 03:22:12;;;;;;;2.23;2.03;;;19.70;64.80;;;;;;5014427;28;20484;-78
2021/05/10 03:24:39;;;;;;;3.20;2.33;;;19.70;64.20;;;;;;5014235;28;20798;-77
2021/05/10 03:27:05;;;;;;;2.13;1.70;;;19.70;65.00;;;;;;5010047;28;20494;-79
2021/05/10 03:29:32;;;;;;;2.53;1.87;;;19.70;65.20;;;;;;4995492;28;20435;-81
2021/05/10 03:31:58;;;;;;;2.57;2.20;;;19.70;64.40;;;;;;4995480;28;20461;-80
2021/05/10 03:34:25;;;;;;;2.97;1.70;;;19.90;62.70;;;;;;5011141;28;20441;-82
2021/05/10 03:36:51;;;;;;;2.50;2.07;;;19.90;62.70;;;;;;5012781;28;20551;-79
2021/05/10 03:39:18;;;;;;;1.73;1.63;;;19.90;62.50;;;;;;4998629;28;20528;-82
2021/05/10 03:41:44;;;;;;;5.30;1.83;;;20.00;62.40;;;;;;5015374;28;20808;-81
2021/05/10 03:44:10;;;;;;;2.00;1.67;;;20.00;62.80;;;;;;5025072;28;20604;-81
2021/05/10 03:46:37;;;;;;;3.30;2.00;;;20.00;62.60;;;;;;5030891;28;20471;-83
2021/05/10 03:49:03;;;;;;;3.60;1.97;;;19.90;64.00;;;;;;5019320;28;20470;-81
2021/05/10 03:51:29;;;;;;;2.40;2.13;;;19.90;63.70;;;;;;5026502;28;20460;-82
2021/05/10 03:53:56;;;;;;;2.57;2.03;;;19.90;62.50;;;;;;4982901;28;20462;-80
2021/05/10 03:56:22;;;;;;;1.87;1.67;;;19.90;62.80;;;;;;5012040;28;20483;-80
2021/05/10 03:58:49;;;;;;;2.10;1.90;;;19.90;62.70;;;;;;5006635;28;20564;-80
2021/05/10 04:01:15;;;;;;;3.03;1.63;;;20.00;62.50;;;;;;5022960;28;20960;-80
2021/05/10 04:03:47;;;;;;;2.40;2.10;;;20.00;62.40;;;;;;5010135;28;20474;-79
2021/05/10 04:14:16;;;;;;;3.80;1.90;;;19.90;63.70;;;;;;5000287;28;20864;-80
2021/05/10 04:16:43;;;;;;;3.87;1.97;;;19.90;63.80;;;;;;5008968;28;21054;-80
2021/05/10 04:19:09;;;;;;;3.37;2.07;;;19.90;63.70;;;;;;5026179;28;20465;-81
2021/05/10 04:21:36;;;;;;;2.10;1.63;;;19.90;63.70;;;;;;5008303;28;20456;-81
2021/05/10 04:24:03;;;;;;;3.00;1.53;;;19.90;63.70;;;;;;5012443;28;20831;-80
2021/05/10 04:26:29;;;;;;;2.90;2.03;;;19.90;63.70;;;;;;5012654;28;21013;-83
2021/05/10 04:28:56;;;;;;;3.30;2.00;;;19.90;63.70;;;;;;5003183;28;20532;-80
2021/05/10 04:31:22;;;;;;;5.10;1.83;;;19.90;63.70;;;;;;4993923;28;20542;-82
2021/05/10 04:33:49;;;;;;;2.30;2.10;;;19.90;63.70;;;;;;5002966;28;20530;-80
2021/05/10 04:36:15;;;;;;;2.43;1.87;;;19.90;63.80;;;;;;4999532;28;20888;-83
2021/05/10 04:38:43;;;;;;;4.03;1.60;;;19.90;63.70;;;;;;5013524;28;20551;-80
2021/05/10 04:41:10;;;;;;;2.33;1.77;;;19.90;63.70;;;;;;5013141;28;21019;-82
2021/05/10 04:43:37;;;;;;;4.67;1.50;;;19.90;64.30;;;;;;5013864;28;20540;-80
2021/05/10 04:46:07;;;;;;;2.60;1.67;;;19.90;63.80;;;;;;5010106;28;20468;-82
2021/05/10 04:48:34;;;;;;;2.20;1.37;;;19.80;64.00;;;;;;5012484;28;20480;-81
2021/05/10 04:51:00;;;;;;;5.13;1.83;;;19.80;64.50;;;;;;4998202;28;20449;-82
2021/05/10 04:53:26;;;;;;;3.47;1.70;;;19.80;64.90;;;;;;4995877;28;20458;-81
2021/05/10 04:55:53;;;;;;;2.37;1.53;;;19.70;65.50;;;;;;5010534;28;20895;-80
2021/05/10 04:58:19;;;;;;;2.90;1.77;;;19.70;65.90;;;;;;5012313;28;20484;-80
2021/05/10 05:00:46;;;;;;;3.40;1.90;;;19.70;66.30;;;;;;5011782;28;20664;-82
2021/05/10 05:03:12;;;;;;;2.97;1.87;;;19.70;66.90;;;;;;5008628;28;20501;-80
2021/05/10 05:05:38;;;;;;;3.10;1.60;;;19.60;67.10;;;;;;5021675;28;20468;-81
2021/05/10 05:08:05;;;;;;;2.53;1.80;;;19.60;67.50;;;;;;5028221;28;20496;-82
2021/05/10 05:10:31;;;;;;;5.17;2.10;;;19.50;68.70;;;;;;5010640;28;20449;-82
2021/05/10 05:12:58;;;;;;;6.37;1.93;;;19.50;69.00;;;;;;5010129;28;20515;-82
2021/05/10 05:15:24;;;;;;;2.97;2.10;;;19.60;69.20;;;;;;5006641;28;20524;-81
2021/05/10 05:17:51;;;;;;;4.63;2.00;;;19.50;69.50;;;;;;4996701;28;20473;-81
2021/05/10 05:20:20;;;;;;;2.67;2.47;;;19.60;70.00;;;;;;4977414;28;20864;-80
2021/05/10 05:22:47;;;;;;;5.43;1.97;;;19.50;70.40;;;;;;4993558;28;20468;-82
2021/05/10 05:25:13;;;;;;;4.83;2.10;;;19.50;70.30;;;;;;5008267;28;20440;-82
2021/05/10 05:27:40;;;;;;;2.80;1.73;;;19.50;71.30;;;;;;4992023;28;21042;-80
2021/05/10 05:30:09;;;;;;;4.90;1.97;;;19.50;71.40;;;;;;4976387;28;20441;-80
2021/05/10 05:32:36;;;;;;;4.43;2.33;;;19.40;72.00;;;;;;5017000;28;20465;-81
2021/05/10 05:35:05;;;;;;;2.87;2.50;;;19.40;72.40;;;;;;5010050;28;20500;-83
2021/05/10 05:37:31;;;;;;;3.43;2.03;;;19.30;73.00;;;;;;5000913;28;20497;-82
2021/05/10 05:39:58;;;;;;;4.13;1.90;;;19.30;72.90;;;;;;5005621;28;20429;-80
2021/05/10 05:42:24;;;;;;;3.30;1.93;;;19.20;73.40;;;;;;5003367;28;20461;-79
2021/05/10 05:44:54;;;;;;;4.00;2.30;;;19.20;73.70;;;;;;5020993;28;20437;-80
2021/05/10 05:47:28;;;;;;;2.20;1.70;;;19.20;74.90;;;;;;5000652;28;20465;-80
2021/05/10 05:49:56;;;;;;;7.97;2.10;;;19.20;74.70;;;;;;5012771;28;20442;-80
2021/05/10 05:52:23;;;;;;;2.50;2.10;;;19.20;75.20;;;;;;5014532;28;20469;-80
2021/05/10 05:54:52;;;;;;;3.20;2.50;;;19.10;75.60;;;;;;5020341;28;20471;-81
2021/05/10 05:57:19;;;;;;;2.23;2.03;;;19.10;75.70;;;;;;5000025;28;20478;-82
2021/05/10 05:59:46;;;;;;;2.93;1.97;;;19.20;75.70;;;;;;4993232;28;20422;-81
2021/05/10 06:02:12;;;;;;;2.67;2.20;;;19.20;75.20;;;;;;4991556;28;20454;-81
2021/05/10 06:04:39;;;;;;;2.50;1.60;;;19.20;75.70;;;;;;5000118;28;20433;-82
2021/05/10 06:07:05;;;;;;;2.53;2.10;;;19.20;75.40;;;;;;4999362;28;20485;-80
2021/05/10 06:09:32;;;;;;;2.60;1.57;;;19.20;75.80;;;;;;5013581;28;20491;-80
2021/05/10 06:11:58;;;;;;;2.40;1.90;;;19.20;75.90;;;;;;5008653;28;20535;-79
2021/05/10 06:14:25;;;;;;;2.80;1.83;;;19.20;75.00;;;;;;4991923;28;20410;-83
2021/05/10 06:16:51;;;;;;;6.30;2.13;;;19.30;77.40;;;;;;4991511;28;20501;-80
2021/05/10 06:19:18;;;;;;;6.53;2.40;;;19.50;76.10;;;;;;5005328;28;20500;-79
2021/05/10 06:21:44;;;;;;;2.57;2.10;;;19.60;74.00;;;;;;5010477;28;20547;-78
2021/05/10 06:24:10;;;;;;;3.70;2.20;;;19.60;73.70;;;;;;5005105;28;20475;-81
2021/05/10 06:26:37;;;;;;;1.70;1.47;;;19.70;73.10;;;;;;5002306;28;20552;-79
2021/05/10 06:29:03;;;;;;;5.00;1.83;;;19.90;69.90;;;;;;4998237;28;20458;-80
2021/05/10 06:31:30;;;;;;;3.23;1.73;;;20.30;69.10;;;;;;4991633;28;20455;-79
2021/05/10 06:33:56;;;;;;;4.83;2.07;;;20.90;67.30;;;;;;5010728;28;20464;-78
2021/05/10 06:36:26;;;;;;;2.60;1.53;;;21.30;65.10;;;;;;5002269;28;20523;-78
2021/05/10 06:38:52;;;;;;;1.80;1.17;;;21.60;63.50;;;;;;5007391;28;20813;-81
2021/05/10 06:41:18;;;;;;;1.80;1.37;;;21.90;60.70;;;;;;5001581;28;20475;-80
2021/05/10 06:43:45;;;;;;;3.70;1.47;;;21.90;59.40;;;;;;5002341;28;20998;-81
2021/05/10 06:46:12;;;;;;;1.97;1.30;;;21.80;60.40;;;;;;5025243;28;20469;-80
2021/05/10 06:48:39;;;;;;;3.57;1.50;;;21.60;59.60;;;;;;5004196;28;20987;-83
2021/05/10 06:51:05;;;;;;;3.97;1.30;;;21.40;60.00;;;;;;4997577;28;20451;-80
2021/05/10 06:53:32;;;;;;;1.33;0.83;;;21.10;60.30;;;;;;5003233;28;20475;-83
2021/05/10 06:56:01;;;;;;;1.37;0.90;;;21.00;60.80;;;;;;5019232;28;20505;-82
2021/05/10 06:58:28;;;;;;;1.47;1.33;;;20.90;61.60;;;;;;5015344;28;20537;-83
2021/05/10 07:00:56;;;;;;;2.33;1.03;;;21.00;62.30;;;;;;5008193;28;20531;-79
2021/05/10 07:03:22;;;;;;;2.57;1.00;;;21.00;61.90;;;;;;5002920;28;20479;-80
2021/05/10 07:05:49;;;;;;;1.00;0.80;;;21.10;62.60;;;;;;5010252;28;20459;-80
2021/05/10 07:08:17;;;;;;;4.27;1.20;;;21.30;62.00;;;;;;5008001;28;20900;-82
2021/05/10 07:10:52;;;;;;;1.00;0.80;;;21.40;60.10;;;;;;5009015;28;20517;-81
2021/05/10 07:13:22;;;;;;;0.97;0.77;;;21.00;60.60;;;;;;5029692;28;20845;-80
2021/05/10 07:15:49;;;;;;;0.90;0.80;;;20.70;62.00;;;;;;5010894;28;20466;-80
2021/05/10 07:18:16;;;;;;;1.97;0.97;;;20.60;63.40;;;;;;4995667;28;20470;-81
2021/05/10 07:20:44;;;;;;;2.03;1.00;;;20.40;64.20;;;;;;4994075;28;20553;-81
2021/05/10 07:23:12;;;;;;;2.83;1.20;;;20.10;64.80;;;;;;5022460;28;21103;-80
2021/05/10 07:25:43;;;;;;;1.30;1.10;;;20.10;65.70;;;;;;5011504;28;20851;-80
2021/05/10 07:28:10;;;;;;;3.93;0.80;;;20.00;66.80;;;;;;5008902;28;20571;-79
2021/05/10 07:30:38;;;;;;;1.40;0.90;;;20.00;66.70;;;;;;5016043;28;20436;-81
2021/05/10 07:33:04;;;;;;;5.87;1.00;;;19.80;66.70;;;;;;5013109;28;20495;-79
2021/05/10 07:35:31;;;;;;;2.60;1.00;;;19.60;67.60;;;;;;5015819;28;20469;-82
2021/05/10 07:37:57;;;;;;;1.57;0.90;;;19.60;68.20;;;;;;4977946;28;20512;-83
2021/05/10 07:40:24;;;;;;;2.40;0.60;;;19.50;68.30;;;;;;5003387;28;20926;-81
2021/05/10 07:42:52;;;;;;;0.90;0.70;;;19.40;69.30;;;;;;5003994;28;20982;-80
2021/05/10 07:45:19;;;;;;;1.43;0.90;;;19.30;69.40;;;;;;5009791;28;20512;-82
2021/05/10 07:47:53;;;;;;;1.60;0.67;;;19.20;69.80;;;;;;5010303;28;20479;-82
2021/05/10 07:50:21;;;;;;;1.37;0.60;;;19.20;69.90;;;;;;4993727;28;20541;-82
2021/05/10 07:52:48;;;;;;;1.17;0.87;;;19.20;70.40;;;;;;5020569;28;21025;-83
2021/05/10 07:55:15;;;;;;;1.87;0.97;;;19.10;70.40;;;;;;5029149;28;21045;-78
2021/05/10 07:57:44;;;;;;;2.10;0.57;;;19.10;70.90;;;;;;5028387;28;20468;-81
2021/05/10 08:00:16;;;;;;;1.20;0.73;;;19.20;70.80;;;;;;5014963;28;20421;-83
2021/05/10 08:02:45;;;;;;;1.47;0.90;;;19.30;70.30;;;;;;5022711;28;20461;-83
2021/05/10 08:05:13;;;;;;;3.53;0.93;;;19.30;70.30;;;;;;5000503;28;20511;-82
2021/05/10 08:07:40;;;;;;;3.27;0.87;;;19.20;70.10;;;;;;4977424;28;20481;-80
2021/05/10 08:10:08;;;;;;;1.00;0.83;;;19.10;70.30;;;;;;5010456;28;20462;-80
2021/05/10 08:12:35;;;;;;;2.03;0.90;;;19.10;70.50;;;;;;5022179;28;20481;-82
2021/05/10 08:15:01;;;;;;;1.10;0.73;;;19.10;71.10;;;;;;5002505;28;21044;-82
2021/05/10 08:17:30;;;;;;;1.83;0.93;;;19.10;71.20;;;;;;5010734;28;20549;-81
2021/05/10 08:19:56;;;;;;;0.80;0.60;;;19.20;71.50;;;;;;5009918;28;20517;-79
2021/05/10 08:22:23;;;;;;;1.20;0.70;;;19.30;70.50;;;;;;5018845;28;20465;-79
2021/05/10 08:24:50;;;;;;;0.70;0.70;;;19.50;69.70;;;;;;4995211;28;20944;-82
2021/05/10 08:27:17;;;;;;;1.63;1.00;;;19.60;68.40;;;;;;5021946;28;20461;-83
2021/05/10 08:29:43;;;;;;;0.70;0.60;;;19.60;67.70;;;;;;5014528;28;20429;-82
2021/05/10 08:32:10;;;;;;;2.20;0.60;;;19.60;66.80;;;;;;5025136;28;20520;-80
2021/05/10 08:34:36;;;;;;;1.63;0.60;;;19.60;66.80;;;;;;5010407;28;20458;-79
2021/05/10 08:37:03;;;;;;;0.67;0.50;;;19.50;67.80;;;;;;5010096;28;20497;-80
2021/05/10 08:39:33;;;;;;;1.20;0.77;;;19.40;67.70;;;;;;5015328;28;20533;-80
2021/05/10 08:41:59;;;;;;;1.23;0.83;;;19.40;67.80;;;;;;5008701;28;20491;-80
2021/05/10 08:44:28;;;;;;;2.63;1.13;;;19.40;68.10;;;;;;5009729;28;20461;-81
2021/05/10 08:46:54;;;;;;;0.90;0.80;;;19.40;68.10;;;;;;4993318;28;20446;-80
2021/05/10 08:49:22;;;;;;;2.23;1.10;;;19.40;68.70;;;;;;4980398;28;20937;-81
2021/05/10 08:51:50;;;;;;;2.20;1.30;;;19.40;68.30;;;;;;4993348;28;20437;-80
2021/05/10 08:54:25;;;;;;;0.80;0.80;;;19.50;68.80;;;;;;5028833;28;20564;-82
2021/05/10 08:56:53;;;;;;;1.03;0.80;;;19.60;68.60;;;;;;5016322;28;20560;-82
2021/05/10 08:59:23;;;;;;;1.43;0.53;;;19.70;67.90;;;;;;4996232;28;20450;-82
2021/05/10 09:01:58;;;;;;;1.20;0.63;;;19.60;66.70;;;;;;5009249;28;20434;-80
2021/05/10 09:04:34;;;;;;;0.97;0.87;;;19.50;66.80;;;;;;5005931;28;20464;-80
2021/05/10 09:07:18;;;;;;;1.87;0.80;;;19.50;66.10;;;;;;5013758;28;20444;-80
2021/05/10 09:09:58;;;;;;;3.30;0.70;;;19.50;66.80;;;;;;5007431;28;20434;-84
2021/05/10 09:12:43;;;;;;;1.33;0.77;;;19.50;67.90;;;;;;5019244;28;20516;-82
2021/05/10 09:15:27;;;;;;;1.87;1.03;;;19.50;68.60;;;;;;4987328;28;20525;-78
2021/05/10 09:18:05;;;;;;;9.60;1.13;;;19.50;67.70;;;;;;4993328;28;20556;-79
2021/05/10 09:20:39;;;;;;;2.30;0.77;;;19.40;68.40;;;;;;5015762;28;20919;-83
2021/05/10 09:23:14;;;;;;;0.80;0.70;;;19.40;68.90;;;;;;4993823;28;20456;-80
2021/05/10 09:25:43;;;;;;;2.00;1.00;;;19.40;68.20;;;;;;5019999;28;20435;-80
2021/05/10 09:28:20;;;;;;;1.47;0.77;;;19.30;68.80;;;;;;5008545;28;20469;-80
2021/05/10 09:30:48;;;;;;;0.87;0.60;;;19.20;68.80;;;;;;4992330;28;20586;-80
2021/05/10 09:33:16;;;;;;;1.00;0.73;;;19.20;68.90;;;;;;4993266;28;20462;-83
2021/05/10 09:35:43;;;;;;;0.90;0.70;;;19.10;69.30;;;;;;5011301;28;20989;-79
2021/05/10 09:38:09;;;;;;;1.40;1.10;;;19.00;69.40;;;;;;5011737;28;20551;-81
2021/05/10 09:40:57;;;;;;;2.40;0.93;;;19.00;70.40;;;;;;5011714;28;20903;-81
2021/05/10 09:43:42;;;;;;;1.47;0.67;;;18.90;70.50;;;;;;5005411;28;21033;-84
2021/05/10 09:46:13;;;;;;;1.00;0.90;;;19.00;70.80;;;;;;5012983;28;20445;-81
2021/05/10 09:49:00;;;;;;;1.43;1.33;;;19.00;71.50;;;;;;4993446;28;20462;-80
2021/05/10 09:51:27;;;;;;;1.73;0.80;;;19.10;71.70;;;;;;5019953;28;20441;-82
2021/05/10 09:53:56;;;;;;;0.87;0.80;;;19.20;71.00;;;;;;5001302;28;20484;-80
2021/05/10 09:59:11;;;;;;;3.00;0.80;;;19.20;70.70;;;;;;5027302;28;20554;-82
2021/05/10 10:01:47;;;;;;;4.03;1.10;;;19.20;71.30;;;;;;5010419;28;20444;-82
2021/05/10 10:04:17;;;;;;;1.37;0.80;;;19.10;71.30;;;;;;4992821;28;20467;-82
2021/05/10 10:06:48;;;;;;;1.70;0.90;;;19.00;71.30;;;;;;5016982;28;20472;-81
2021/05/10 10:09:15;;;;;;;1.23;1.00;;;19.00;71.90;;;;;;4992858;28;20465;-83
2021/05/10 10:11:41;;;;;;;1.63;0.90;;;19.00;71.50;;;;;;5018849;28;20446;-82
2021/05/10 10:14:10;;;;;;;1.27;1.00;;;19.00;71.90;;;;;;4990986;28;20477;-81
2021/05/10 10:16:37;;;;;;;2.47;1.13;;;19.00;71.80;;;;;;5007812;28;20465;-82
2021/05/10 10:19:06;;;;;;;1.33;0.90;;;19.00;72.10;;;;;;4982233;28;20493;-82
2021/05/10 10:21:39;;;;;;;2.70;1.20;;;19.00;72.00;;;;;;5001956;28;20492;-84
2021/05/10 10:24:09;;;;;;;2.50;1.67;;;19.00;72.80;;;;;;5019174;28;20496;-83
2021/05/10 10:26:56;;;;;;;2.10;1.20;;;19.00;72.00;;;;;;5010931;28;20991;-81
2021/05/10 10:29:26;;;;;;;1.80;1.40;;;19.20;71.40;;;;;;4997595;28;20457;-81
2021/05/10 10:31:53;;;;;;;4.63;1.33;;;19.30;70.80;;;;;;5003099;28;20437;-80
2021/05/10 10:34:26;;;;;;;2.70;1.00;;;19.40;70.50;;;;;;5008213;28;20507;-82
2021/05/10 10:36:58;;;;;;;1.37;1.17;;;19.50;70.50;;;;;;4975312;28;20474;-82
2021/05/10 10:39:27;;;;;;;1.80;1.27;;;19.50;72.10;;;;;;4992795;28;20496;-81
2021/05/10 10:42:03;;;;;;;1.83;1.07;;;19.60;71.60;;;;;;4997549;28;20469;-82
2021/05/10 10:44:59;;;;;;;1.33;0.90;;;19.80;69.80;;;;;;4991484;28;20418;-82
2021/05/10 10:47:47;;;;;;;2.20;1.20;;;20.00;68.20;;;;;;4998513;28;20477;-82
2021/05/10 10:50:16;;;;;;;1.80;1.13;;;20.10;66.60;;;;;;5025594;28;20432;-81
2021/05/10 10:53:04;;;;;;;1.20;1.10;;;20.20;67.80;;;;;;4992379;28;20470;-80
2021/05/10 10:55:37;;;;;;;1.43;1.30;;;20.10;67.60;;;;;;4991465;28;20461;-82
2021/05/10 10:58:21;;;;;;;3.37;2.10;;;20.30;67.70;;;;;;4992350;28;20465;-80
2021/05/10 11:00:57;;;;;;;1.20;1.10;;;20.30;66.70;;;;;;5009749;28;20487;-81
2021/05/10 11:03:23;;;;;;;1.40;1.30;;;20.40;66.90;;;;;;4990573;28;20465;-81
2021/05/10 11:05:50;;;;;;;1.20;1.10;;;20.40;64.50;;;;;;5010538;28;21088;-80
2021/05/10 11:08:17;;;;;;;2.13;1.43;;;20.30;65.70;;;;;;4993807;28;20512;-81
2021/05/10 11:10:51;;;;;;;1.80;1.20;;;20.20;65.70;;;;;;5009795;28;20510;-82
2021/05/10 11:13:30;;;;;;;1.30;1.20;;;20.00;65.40;;;;;;4974701;28;20879;-82
2021/05/10 11:16:10;;;;;;;1.33;1.23;;;19.90;67.40;;;;;;5000764;28;20559;-80
2021/05/10 11:18:51;;;;;;;1.23;1.13;;;19.90;67.60;;;;;;5011618;28;20469;-81
2021/05/10 11:21:23;;;;;;;1.97;1.43;;;19.90;67.50;;;;;;4999933;28;20549;-81
2021/05/10 11:23:56;;;;;;;1.83;1.30;;;20.00;68.10;;;;;;4990681;28;20492;-82
2021/05/10 11:26:46;;;;;;;1.73;1.23;;;20.10;66.30;;;;;;4993636;28;20466;-82
2021/05/10 11:29:41;;;;;;;1.53;1.37;;;20.10;65.20;;;;;;4994434;28;20887;-82
2021/05/10 11:32:08;;;;;;;1.57;1.30;;;20.00;65.00;;;;;;4997526;28;20795;-80
2021/05/10 11:34:40;;;;;;;1.93;1.40;;;19.90;63.70;;;;;;5020336;28;20427;-80
2021/05/10 11:37:07;;;;;;;1.50;1.40;;;19.90;65.20;;;;;;5014615;28;20469;-79
2021/05/10 11:39:36;;;;;;;3.43;1.30;;;19.90;66.20;;;;;;4998491;28;20430;-83
2021/05/10 11:42:05;;;;;;;1.60;1.20;;;19.90;65.40;;;;;;4994830;28;20457;-79
2021/05/10 11:44:34;;;;;;;3.73;1.50;;;19.80;66.00;;;;;;5005416;28;20444;-81
2021/05/10 11:47:12;;;;;;;3.67;1.70;;;19.80;65.60;;;;;;4995606;28;20464;-82
2021/05/10 11:49:46;;;;;;;1.70;1.60;;;19.70;67.50;;;;;;5014615;28;20447;-80
2021/05/10 11:52:26;;;;;;;5.37;3.70;;;19.70;67.50;;;;;;5004897;28;20959;-78
2021/05/10 11:54:55;;;;;;;3.53;2.73;;;19.40;71.50;;;;;;4994118;28;20782;-79
2021/05/10 11:57:34;;;;;;;2.20;1.77;;;19.10;72.50;;;;;;5013426;28;20482;-79
2021/05/10 12:00:15;;;;;;;1.50;1.20;;;18.70;74.70;;;;;;5016518;28;20471;-81
2021/05/10 12:02:44;;;;;;;1.60;1.10;;;18.50;76.80;;;;;;5011785;28;20453;-79
2021/05/10 12:05:12;;;;;;;2.60;0.80;;;18.30;78.00;;;;;;5003053;28;20545;-78
2021/05/10 12:07:39;;;;;;;2.97;1.30;;;18.20;79.20;;;;;;4997137;28;20574;-79
2021/05/10 12:10:07;;;;;;;0.90;0.73;;;18.00;80.40;;;;;;5009739;28;20434;-81
2021/05/10 12:12:48;;;;;;;3.20;1.33;;;17.90;81.80;;;;;;4994769;28;20577;-81
2021/05/10 12:15:25;;;;;;;1.53;1.43;;;18.00;83.10;;;;;;5014449;28;20527;-81
2021/05/10 12:17:56;;;;;;;2.57;1.13;;;17.90;84.20;;;;;;5020692;28;20500;-80
2021/05/10 12:20:27;;;;;;;2.27;1.07;;;17.80;85.90;;;;;;4993458;28;20530;-81
2021/05/10 12:23:00;;;;;;;2.00;1.27;;;17.80;87.20;;;;;;4996714;28;20978;-82
2021/05/10 12:25:33;;;;;;;2.60;1.10;;;17.90;89.20;;;;;;5001618;28;20444;-81
2021/05/10 12:28:14;;;;;;;3.30;0.90;;;18.00;90.20;;;;;;5013649;28;20986;-81
2021/05/10 12:30:47;;;;;;;1.53;1.03;;;18.00;89.60;;;;;;5012995;28;20441;-79
2021/05/10 12:33:16;;;;;;;2.47;1.20;;;18.10;88.90;;;;;;5029307;28;21050;-80
2021/05/10 12:35:48;;;;;;;1.20;1.10;;;18.30;88.00;;;;;;4999578;28;20556;-80
2021/05/10 12:38:37;;;;;;;2.17;1.03;;;18.40;87.60;;;;;;4996945;28;20476;-81
2021/05/10 12:41:18;;;;;;;3.10;1.37;;;18.50;86.00;;;;;;5013284;28;20448;-80
2021/05/10 12:43:46;;;;;;;1.47;0.97;;;18.50;87.40;;;;;;5002059;28;21010;-80
2021/05/10 12:46:13;;;;;;;3.93;1.07;;;18.60;82.80;;;;;;5013907;28;20479;-81
2021/05/10 12:48:46;;;;;;;0.93;0.70;;;18.60;80.00;;;;;;5001832;28;20470;-80
2021/05/10 12:51:26;;;;;;;0.80;0.73;;;18.70;79.80;;;;;;5008910;28;20943;-79
2021/05/10 12:54:04;;;;;;;2.10;0.83;;;18.80;79.30;;;;;;5004820;28;20560;-77
2021/05/10 12:56:44;;;;;;;1.30;0.47;;;18.80;79.10;;;;;;5002771;28;20523;-79
2021/05/10 12:59:10;;;;;;;0.73;0.50;;;18.90;77.60;;;;;;5008525;28;20979;-78
2021/05/10 13:01:36;;;;;;;2.73;0.83;;;19.00;74.60;;;;;;5018949;28;20519;-80
2021/05/10 13:04:06;;;;;;;1.23;0.73;;;19.20;73.10;;;;;;5023920;28;20993;-80
2021/05/10 13:06:47;;;;;;;0.77;0.73;;;19.40;72.80;;;;;;5007629;28;20465;-81
2021/05/10 13:09:24;;;;;;;0.83;0.73;;;19.60;70.10;;;;;;5009176;28;20488;-81
2021/05/10 13:12:01;;;;;;;1.80;0.90;;;19.70;69.90;;;;;;5009925;28;20959;-79